Wright Pat, Ohio
Current Conditions -  °F | °C
As of 4:28 PM on Tuesday 21 Oct 2014 (Local Time) from KFFO Reporting Station
Light Rain Light Rain  
Wind Chill: 10°   Ceiling: 2300
Heat Index: 10°   Visibility: 10mi
Dew Point:   Wind: 10mph
Humidity: 87%   Direction: 360°N
Pressure: 30.07"   Gusts: NA
Location:  39.8169°N, 84.0506°W
Report Text: KFFO 212028Z 36009KT 10SM -RA SCT017 BKN023 OVC038 10/08 A3007 RMK AO2A SLP185
Loading
Personal Weather Stations






























Interactive Weather Map
Tropical Storm Tracking
New forecast layout! Learn more

10-Day Weather Forecast

Advertisements
Track Severe Weather on mobile